sensor_id;sensor_type;location;lat;lon;timestamp;P1;durP1;ratioP1;P2;durP2;ratioP2
6051;SDS011;3054;51.204;4.430;2022-07-23T00:00:14;12.63;;;5.63;;
6051;SDS011;3054;51.204;4.430;2022-07-23T00:02:42;7.10;;;5.40;;
6051;SDS011;3054;51.204;4.430;2022-07-23T00:05:10;5.77;;;5.17;;
6051;SDS011;3054;51.204;4.430;2022-07-23T00:07:37;12.90;;;5.60;;
6051;SDS011;3054;51.204;4.430;2022-07-23T00:10:05;7.77;;;5.50;;
6051;SDS011;3054;51.204;4.430;2022-07-23T00:12:33;5.80;;;5.20;;
6051;SDS011;3054;51.204;4.430;2022-07-23T00:15:00;7.83;;;4.63;;
6051;SDS011;3054;51.204;4.430;2022-07-23T00:17:27;7.37;;;5.50;;
6051;SDS011;3054;51.204;4.430;2022-07-23T00:19:54;6.40;;;4.50;;
6051;SDS011;3054;51.204;4.430;2022-07-23T00:22:23;15.10;;;5.40;;
6051;SDS011;3054;51.204;4.430;2022-07-23T00:24:50;12.00;;;5.77;;
6051;SDS011;3054;51.204;4.430;2022-07-23T00:27:17;10.60;;;5.47;;
6051;SDS011;3054;51.204;4.430;2022-07-23T00:29:44;9.63;;;5.57;;
6051;SDS011;3054;51.204;4.430;2022-07-23T00:32:11;7.90;;;5.60;;
6051;SDS011;3054;51.204;4.430;2022-07-23T00:34:38;7.37;;;5.17;;
6051;SDS011;3054;51.204;4.430;2022-07-23T00:37:04;8.17;;;6.00;;
6051;SDS011;3054;51.204;4.430;2022-07-23T00:39:33;8.93;;;5.17;;
6051;SDS011;3054;51.204;4.430;2022-07-23T00:42:00;5.20;;;4.33;;
6051;SDS011;3054;51.204;4.430;2022-07-23T00:44:27;9.83;;;5.77;;
6051;SDS011;3054;51.204;4.430;2022-07-23T00:46:55;12.17;;;7.07;;
6051;SDS011;3054;51.204;4.430;2022-07-23T00:49:25;12.80;;;7.30;;
6051;SDS011;3054;51.204;4.430;2022-07-23T00:51:53;7.57;;;4.90;;
6051;SDS011;3054;51.204;4.430;2022-07-23T00:54:21;8.13;;;5.63;;
6051;SDS011;3054;51.204;4.430;2022-07-23T00:56:51;8.00;;;5.50;;
6051;SDS011;3054;51.204;4.430;2022-07-23T00:59:18;11.30;;;5.20;;
6051;SDS011;3054;51.204;4.430;2022-07-23T01:01:45;7.17;;;5.33;;
6051;SDS011;3054;51.204;4.430;2022-07-23T01:04:14;9.97;;;5.40;;
6051;SDS011;3054;51.204;4.430;2022-07-23T01:06:41;8.93;;;5.10;;
6051;SDS011;3054;51.204;4.430;2022-07-23T01:09:09;6.57;;;5.20;;
6051;SDS011;3054;51.204;4.430;2022-07-23T01:11:37;10.77;;;5.93;;
6051;SDS011;3054;51.204;4.430;2022-07-23T01:14:09;12.00;;;6.17;;
6051;SDS011;3054;51.204;4.430;2022-07-23T01:16:40;8.53;;;6.00;;
6051;SDS011;3054;51.204;4.430;2022-07-23T01:19:07;9.53;;;5.77;;
6051;SDS011;3054;51.204;4.430;2022-07-23T01:21:35;7.70;;;5.00;;
6051;SDS011;3054;51.204;4.430;2022-07-23T01:24:05;12.87;;;6.57;;
6051;SDS011;3054;51.204;4.430;2022-07-23T01:26:33;11.67;;;5.80;;
6051;SDS011;3054;51.204;4.430;2022-07-23T01:29:00;9.83;;;6.13;;
6051;SDS011;3054;51.204;4.430;2022-07-23T01:31:27;7.07;;;6.00;;
6051;SDS011;3054;51.204;4.430;2022-07-23T01:33:54;12.23;;;5.80;;
6051;SDS011;3054;51.204;4.430;2022-07-23T01:36:21;9.30;;;5.83;;
6051;SDS011;3054;51.204;4.430;2022-07-23T01:38:48;9.27;;;5.83;;
6051;SDS011;3054;51.204;4.430;2022-07-23T01:41:16;7.67;;;5.80;;
6051;SDS011;3054;51.204;4.430;2022-07-23T01:43:43;9.33;;;6.00;;
6051;SDS011;3054;51.204;4.430;2022-07-23T01:46:10;9.83;;;5.90;;
6051;SDS011;3054;51.204;4.430;2022-07-23T01:48:38;13.43;;;7.00;;
6051;SDS011;3054;51.204;4.430;2022-07-23T01:51:05;9.50;;;6.13;;
6051;SDS011;3054;51.204;4.430;2022-07-23T01:53:32;9.90;;;5.93;;
6051;SDS011;3054;51.204;4.430;2022-07-23T01:55:59;11.50;;;6.10;;
6051;SDS011;3054;51.204;4.430;2022-07-23T01:58:28;8.67;;;6.10;;
6051;SDS011;3054;51.204;4.430;2022-07-23T02:00:55;6.57;;;5.93;;
6051;SDS011;3054;51.204;4.430;2022-07-23T02:03:22;6.60;;;5.17;;
6051;SDS011;3054;51.204;4.430;2022-07-23T02:05:50;8.80;;;6.10;;
6051;SDS011;3054;51.204;4.430;2022-07-23T02:08:17;13.33;;;6.80;;
6051;SDS011;3054;51.204;4.430;2022-07-23T02:10:44;6.77;;;6.10;;
6051;SDS011;3054;51.204;4.430;2022-07-23T02:13:11;6.90;;;6.20;;
6051;SDS011;3054;51.204;4.430;2022-07-23T02:15:40;12.63;;;5.90;;
6051;SDS011;3054;51.204;4.430;2022-07-23T02:18:07;11.63;;;7.00;;
6051;SDS011;3054;51.204;4.430;2022-07-23T02:20:34;8.37;;;5.90;;
6051;SDS011;3054;51.204;4.430;2022-07-23T02:23:03;7.03;;;6.30;;
6051;SDS011;3054;51.204;4.430;2022-07-23T02:25:31;11.93;;;6.60;;
6051;SDS011;3054;51.204;4.430;2022-07-23T02:27:58;9.90;;;6.23;;
6051;SDS011;3054;51.204;4.430;2022-07-23T02:30:25;9.20;;;5.80;;
6051;SDS011;3054;51.204;4.430;2022-07-23T02:32:53;9.47;;;6.20;;
6051;SDS011;3054;51.204;4.430;2022-07-23T02:35:21;8.83;;;5.90;;
6051;SDS011;3054;51.204;4.430;2022-07-23T02:37:48;9.93;;;6.03;;
6051;SDS011;3054;51.204;4.430;2022-07-23T02:40:14;9.53;;;6.10;;
6051;SDS011;3054;51.204;4.430;2022-07-23T02:42:42;8.73;;;6.40;;
6051;SDS011;3054;51.204;4.430;2022-07-23T02:45:09;19.30;;;6.80;;
6051;SDS011;3054;51.204;4.430;2022-07-23T02:47:36;12.23;;;6.77;;
6051;SDS011;3054;51.204;4.430;2022-07-23T02:50:05;13.33;;;6.10;;
6051;SDS011;3054;51.204;4.430;2022-07-23T02:52:32;7.27;;;6.00;;
6051;SDS011;3054;51.204;4.430;2022-07-23T02:54:59;9.03;;;7.20;;
6051;SDS011;3054;51.204;4.430;2022-07-23T02:57:26;10.73;;;6.10;;
6051;SDS011;3054;51.204;4.430;2022-07-23T02:59:53;10.53;;;5.93;;
6051;SDS011;3054;51.204;4.430;2022-07-23T03:02:20;8.67;;;6.70;;
6051;SDS011;3054;51.204;4.430;2022-07-23T03:04:47;9.60;;;6.60;;
6051;SDS011;3054;51.204;4.430;2022-07-23T03:07:16;9.30;;;6.77;;
6051;SDS011;3054;51.204;4.430;2022-07-23T03:09:43;9.53;;;5.70;;
6051;SDS011;3054;51.204;4.430;2022-07-23T03:12:10;7.87;;;6.10;;
6051;SDS011;3054;51.204;4.430;2022-07-23T03:14:37;8.20;;;6.80;;
6051;SDS011;3054;51.204;4.430;2022-07-23T03:17:04;7.10;;;6.40;;
6051;SDS011;3054;51.204;4.430;2022-07-23T03:19:31;10.30;;;6.30;;
6051;SDS011;3054;51.204;4.430;2022-07-23T03:21:58;11.70;;;6.60;;
6051;SDS011;3054;51.204;4.430;2022-07-23T03:24:27;8.30;;;6.50;;
6051;SDS011;3054;51.204;4.430;2022-07-23T03:27:14;8.30;;;7.40;;
6051;SDS011;3054;51.204;4.430;2022-07-23T03:29:41;10.17;;;7.70;;
6051;SDS011;3054;51.204;4.430;2022-07-23T03:32:08;10.63;;;8.10;;
6051;SDS011;3054;51.204;4.430;2022-07-23T03:34:36;10.10;;;7.70;;
6051;SDS011;3054;51.204;4.430;2022-07-23T03:37:03;11.47;;;8.07;;
6051;SDS011;3054;51.204;4.430;2022-07-23T03:39:32;10.80;;;8.53;;
6051;SDS011;3054;51.204;4.430;2022-07-23T03:41:59;17.00;;;7.40;;
6051;SDS011;3054;51.204;4.430;2022-07-23T03:44:27;12.00;;;7.70;;
6051;SDS011;3054;51.204;4.430;2022-07-23T03:46:54;9.90;;;7.50;;
6051;SDS011;3054;51.204;4.430;2022-07-23T03:49:21;12.97;;;8.77;;
6051;SDS011;3054;51.204;4.430;2022-07-23T03:51:48;9.23;;;7.20;;
6051;SDS011;3054;51.204;4.430;2022-07-23T03:54:15;14.37;;;7.23;;
6051;SDS011;3054;51.204;4.430;2022-07-23T03:56:43;8.70;;;7.80;;
6051;SDS011;3054;51.204;4.430;2022-07-23T03:59:10;9.73;;;7.80;;
6051;SDS011;3054;51.204;4.430;2022-07-23T04:01:37;8.93;;;7.83;;
6051;SDS011;3054;51.204;4.430;2022-07-23T04:04:04;16.23;;;8.17;;
6051;SDS011;3054;51.204;4.430;2022-07-23T04:06:33;11.93;;;8.13;;
6051;SDS011;3054;51.204;4.430;2022-07-23T04:09:00;11.40;;;7.90;;
6051;SDS011;3054;51.204;4.430;2022-07-23T04:11:28;7.50;;;6.80;;
6051;SDS011;3054;51.204;4.430;2022-07-23T04:13:56;14.87;;;7.67;;
6051;SDS011;3054;51.204;4.430;2022-07-23T04:16:23;14.80;;;8.47;;
6051;SDS011;3054;51.204;4.430;2022-07-23T04:18:50;10.10;;;7.10;;
6051;SDS011;3054;51.204;4.430;2022-07-23T04:21:17;7.80;;;6.43;;
6051;SDS011;3054;51.204;4.430;2022-07-23T04:23:44;8.80;;;7.80;;
6051;SDS011;3054;51.204;4.430;2022-07-23T04:26:11;7.60;;;6.87;;
6051;SDS011;3054;51.204;4.430;2022-07-23T04:28:38;9.13;;;7.63;;
6051;SDS011;3054;51.204;4.430;2022-07-23T04:31:07;10.30;;;7.63;;
6051;SDS011;3054;51.204;4.430;2022-07-23T04:33:34;9.00;;;6.97;;
6051;SDS011;3054;51.204;4.430;2022-07-23T04:36:01;7.10;;;6.40;;
6051;SDS011;3054;51.204;4.430;2022-07-23T04:38:28;8.00;;;6.87;;
6051;SDS011;3054;51.204;4.430;2022-07-23T04:40:55;7.13;;;6.27;;
6051;SDS011;3054;51.204;4.430;2022-07-23T04:43:22;9.60;;;6.77;;
6051;SDS011;3054;51.204;4.430;2022-07-23T04:45:49;7.23;;;6.53;;
6051;SDS011;3054;51.204;4.430;2022-07-23T04:48:17;8.83;;;7.93;;
6051;SDS011;3054;51.204;4.430;2022-07-23T04:50:44;7.60;;;6.77;;
6051;SDS011;3054;51.204;4.430;2022-07-23T04:53:11;10.80;;;7.10;;
6051;SDS011;3054;51.204;4.430;2022-07-23T04:55:38;8.83;;;6.07;;
6051;SDS011;3054;51.204;4.430;2022-07-23T04:58:05;10.47;;;6.63;;
6051;SDS011;3054;51.204;4.430;2022-07-23T05:00:32;7.70;;;6.07;;
6051;SDS011;3054;51.204;4.430;2022-07-23T05:02:59;17.70;;;6.57;;
6051;SDS011;3054;51.204;4.430;2022-07-23T05:05:27;8.57;;;5.57;;
6051;SDS011;3054;51.204;4.430;2022-07-23T05:07:55;11.40;;;6.77;;
6051;SDS011;3054;51.204;4.430;2022-07-23T05:10:21;9.70;;;6.10;;
6051;SDS011;3054;51.204;4.430;2022-07-23T05:12:48;9.90;;;6.47;;
6051;SDS011;3054;51.204;4.430;2022-07-23T05:15:16;10.10;;;6.17;;
6051;SDS011;3054;51.204;4.430;2022-07-23T05:17:42;10.27;;;6.20;;
6051;SDS011;3054;51.204;4.430;2022-07-23T05:20:10;9.77;;;6.70;;
6051;SDS011;3054;51.204;4.430;2022-07-23T05:22:40;8.07;;;5.83;;
6051;SDS011;3054;51.204;4.430;2022-07-23T05:25:07;12.33;;;6.47;;
6051;SDS011;3054;51.204;4.430;2022-07-23T05:27:34;10.33;;;7.43;;
6051;SDS011;3054;51.204;4.430;2022-07-23T05:30:01;9.70;;;7.13;;
6051;SDS011;3054;51.204;4.430;2022-07-23T05:32:30;11.90;;;6.80;;
6051;SDS011;3054;51.204;4.430;2022-07-23T05:34:58;9.80;;;6.70;;
6051;SDS011;3054;51.204;4.430;2022-07-23T05:37:25;10.43;;;7.70;;
6051;SDS011;3054;51.204;4.430;2022-07-23T05:39:53;10.40;;;7.70;;
6051;SDS011;3054;51.204;4.430;2022-07-23T05:42:20;12.00;;;6.60;;
6051;SDS011;3054;51.204;4.430;2022-07-23T05:44:47;12.93;;;7.20;;
6051;SDS011;3054;51.204;4.430;2022-07-23T05:47:14;7.03;;;6.33;;
6051;SDS011;3054;51.204;4.430;2022-07-23T05:49:40;9.97;;;6.87;;
6051;SDS011;3054;51.204;4.430;2022-07-23T05:52:07;9.90;;;6.70;;
6051;SDS011;3054;51.204;4.430;2022-07-23T05:54:34;14.73;;;6.27;;
6051;SDS011;3054;51.204;4.430;2022-07-23T05:57:03;9.27;;;5.80;;
6051;SDS011;3054;51.204;4.430;2022-07-23T05:59:33;5.73;;;5.23;;
6051;SDS011;3054;51.204;4.430;2022-07-23T06:02:00;14.03;;;5.10;;
6051;SDS011;3054;51.204;4.430;2022-07-23T06:04:27;10.07;;;5.83;;
6051;SDS011;3054;51.204;4.430;2022-07-23T06:06:54;10.70;;;5.40;;
6051;SDS011;3054;51.204;4.430;2022-07-23T06:09:21;6.77;;;5.20;;
6051;SDS011;3054;51.204;4.430;2022-07-23T06:11:48;11.27;;;6.13;;
6051;SDS011;3054;51.204;4.430;2022-07-23T06:14:16;7.10;;;5.73;;
6051;SDS011;3054;51.204;4.430;2022-07-23T06:16:43;7.07;;;5.93;;
6051;SDS011;3054;51.204;4.430;2022-07-23T06:19:10;8.93;;;5.00;;
6051;SDS011;3054;51.204;4.430;2022-07-23T06:21:37;7.17;;;4.93;;
6051;SDS011;3054;51.204;4.430;2022-07-23T06:24:04;9.00;;;5.40;;
6051;SDS011;3054;51.204;4.430;2022-07-23T06:26:31;9.43;;;5.20;;
6051;SDS011;3054;51.204;4.430;2022-07-23T06:28:58;11.03;;;5.70;;
6051;SDS011;3054;51.204;4.430;2022-07-23T06:31:27;5.90;;;5.17;;
6051;SDS011;3054;51.204;4.430;2022-07-23T06:33:54;13.57;;;6.00;;
6051;SDS011;3054;51.204;4.430;2022-07-23T06:36:21;6.13;;;4.77;;
6051;SDS011;3054;51.204;4.430;2022-07-23T06:38:48;7.40;;;5.13;;
6051;SDS011;3054;51.204;4.430;2022-07-23T06:41:15;9.37;;;5.40;;
6051;SDS011;3054;51.204;4.430;2022-07-23T06:43:42;6.90;;;5.50;;
6051;SDS011;3054;51.204;4.430;2022-07-23T06:46:09;8.73;;;5.30;;
6051;SDS011;3054;51.204;4.430;2022-07-23T06:48:37;6.63;;;5.30;;
6051;SDS011;3054;51.204;4.430;2022-07-23T06:51:04;8.87;;;5.40;;
6051;SDS011;3054;51.204;4.430;2022-07-23T06:53:31;4.80;;;4.40;;
6051;SDS011;3054;51.204;4.430;2022-07-23T06:55:58;8.30;;;4.50;;
6051;SDS011;3054;51.204;4.430;2022-07-23T06:58:25;11.03;;;4.00;;
6051;SDS011;3054;51.204;4.430;2022-07-23T07:00:52;19.50;;;4.10;;
6051;SDS011;3054;51.204;4.430;2022-07-23T07:03:22;6.90;;;3.97;;
6051;SDS011;3054;51.204;4.430;2022-07-23T07:05:50;6.90;;;4.30;;
6051;SDS011;3054;51.204;4.430;2022-07-23T07:08:18;6.53;;;3.40;;
6051;SDS011;3054;51.204;4.430;2022-07-23T07:10:45;8.90;;;4.20;;
6051;SDS011;3054;51.204;4.430;2022-07-23T07:13:12;6.53;;;3.90;;
6051;SDS011;3054;51.204;4.430;2022-07-23T07:15:39;5.27;;;4.40;;
6051;SDS011;3054;51.204;4.430;2022-07-23T07:18:06;8.70;;;4.57;;
6051;SDS011;3054;51.204;4.430;2022-07-23T07:20:33;6.33;;;4.37;;
6051;SDS011;3054;51.204;4.430;2022-07-23T07:23:01;7.97;;;4.13;;
6051;SDS011;3054;51.204;4.430;2022-07-23T07:25:28;7.70;;;4.00;;
6051;SDS011;3054;51.204;4.430;2022-07-23T07:27:55;6.90;;;3.60;;
6051;SDS011;3054;51.204;4.430;2022-07-23T07:30:23;16.90;;;5.43;;
6051;SDS011;3054;51.204;4.430;2022-07-23T07:32:50;8.83;;;4.80;;
6051;SDS011;3054;51.204;4.430;2022-07-23T07:35:17;5.93;;;3.60;;
6051;SDS011;3054;51.204;4.430;2022-07-23T07:37:44;5.20;;;4.07;;
6051;SDS011;3054;51.204;4.430;2022-07-23T07:40:12;4.63;;;4.00;;
6051;SDS011;3054;51.204;4.430;2022-07-23T07:42:45;8.10;;;4.50;;
6051;SDS011;3054;51.204;4.430;2022-07-23T07:45:13;4.90;;;4.20;;
6051;SDS011;3054;51.204;4.430;2022-07-23T07:47:40;7.20;;;4.30;;
6051;SDS011;3054;51.204;4.430;2022-07-23T07:50:07;4.80;;;4.20;;
6051;SDS011;3054;51.204;4.430;2022-07-23T07:52:35;6.77;;;4.10;;
6051;SDS011;3054;51.204;4.430;2022-07-23T07:55:02;8.40;;;4.27;;
6051;SDS011;3054;51.204;4.430;2022-07-23T07:57:31;13.00;;;4.50;;
6051;SDS011;3054;51.204;4.430;2022-07-23T07:59:58;8.30;;;4.77;;
6051;SDS011;3054;51.204;4.430;2022-07-23T08:02:25;7.77;;;4.70;;
6051;SDS011;3054;51.204;4.430;2022-07-23T08:04:52;8.23;;;4.50;;
6051;SDS011;3054;51.204;4.430;2022-07-23T08:07:21;8.00;;;5.57;;
6051;SDS011;3054;51.204;4.430;2022-07-23T08:09:49;11.67;;;4.93;;
6051;SDS011;3054;51.204;4.430;2022-07-23T08:12:16;8.70;;;5.83;;
6051;SDS011;3054;51.204;4.430;2022-07-23T08:14:44;8.15;;;4.53;;
6051;SDS011;3054;51.204;4.430;2022-07-23T08:17:11;5.80;;;4.80;;
6051;SDS011;3054;51.204;4.430;2022-07-23T08:19:37;8.05;;;4.38;;
6051;SDS011;3054;51.204;4.430;2022-07-23T08:22:05;6.45;;;3.83;;
6051;SDS011;3054;51.204;4.430;2022-07-23T08:24:31;8.52;;;5.00;;
6051;SDS011;3054;51.204;4.430;2022-07-23T08:26:58;4.88;;;4.10;;
6051;SDS011;3054;51.204;4.430;2022-07-23T08:29:25;7.97;;;4.63;;
6051;SDS011;3054;51.204;4.430;2022-07-23T08:31:53;5.80;;;4.30;;
6051;SDS011;3054;51.204;4.430;2022-07-23T08:34:20;8.15;;;3.65;;
6051;SDS011;3054;51.204;4.430;2022-07-23T08:36:48;6.03;;;3.47;;
6051;SDS011;3054;51.204;4.430;2022-07-23T08:39:15;8.02;;;4.18;;
6051;SDS011;3054;51.204;4.430;2022-07-23T08:41:41;6.30;;;3.33;;
6051;SDS011;3054;51.204;4.430;2022-07-23T08:44:09;5.63;;;3.95;;
6051;SDS011;3054;51.204;4.430;2022-07-23T08:46:36;5.45;;;3.80;;
6051;SDS011;3054;51.204;4.430;2022-07-23T08:49:05;6.28;;;3.90;;
6051;SDS011;3054;51.204;4.430;2022-07-23T08:51:33;4.65;;;4.25;;
6051;SDS011;3054;51.204;4.430;2022-07-23T08:54:00;6.47;;;3.92;;
6051;SDS011;3054;51.204;4.430;2022-07-23T08:56:27;6.38;;;4.18;;
6051;SDS011;3054;51.204;4.430;2022-07-23T08:58:54;5.32;;;3.95;;
6051;SDS011;3054;51.204;4.430;2022-07-23T09:01:21;9.93;;;5.13;;
6051;SDS011;3054;51.204;4.430;2022-07-23T09:03:48;12.52;;;4.93;;
6051;SDS011;3054;51.204;4.430;2022-07-23T09:06:17;7.95;;;4.13;;
6051;SDS011;3054;51.204;4.430;2022-07-23T09:08:44;6.18;;;4.43;;
6051;SDS011;3054;51.204;4.430;2022-07-23T09:11:13;5.70;;;3.28;;
6051;SDS011;3054;51.204;4.430;2022-07-23T09:13:43;6.35;;;4.85;;
6051;SDS011;3054;51.204;4.430;2022-07-23T09:16:13;5.43;;;3.50;;
6051;SDS011;3054;51.204;4.430;2022-07-23T09:18:43;4.97;;;3.67;;
6051;SDS011;3054;51.204;4.430;2022-07-23T09:21:13;7.43;;;4.47;;
6051;SDS011;3054;51.204;4.430;2022-07-23T09:23:51;13.82;;;4.40;;
6051;SDS011;3054;51.204;4.430;2022-07-23T09:29:07;4.78;;;3.47;;
6051;SDS011;3054;51.204;4.430;2022-07-23T09:31:47;7.68;;;3.58;;
6051;SDS011;3054;51.204;4.430;2022-07-23T09:34:16;6.30;;;3.58;;
6051;SDS011;3054;51.204;4.430;2022-07-23T09:36:47;9.43;;;3.20;;
6051;SDS011;3054;51.204;4.430;2022-07-23T09:39:16;8.43;;;3.30;;
6051;SDS011;3054;51.204;4.430;2022-07-23T09:41:51;7.63;;;3.40;;
6051;SDS011;3054;51.204;4.430;2022-07-23T09:44:19;5.18;;;3.38;;
6051;SDS011;3054;51.204;4.430;2022-07-23T09:46:47;9.20;;;4.00;;
6051;SDS011;3054;51.204;4.430;2022-07-23T09:49:16;5.85;;;4.30;;
6051;SDS011;3054;51.204;4.430;2022-07-23T09:51:47;7.63;;;3.28;;
6051;SDS011;3054;51.204;4.430;2022-07-23T09:54:24;6.53;;;3.88;;
6051;SDS011;3054;51.204;4.430;2022-07-23T09:56:58;4.55;;;2.80;;
6051;SDS011;3054;51.204;4.430;2022-07-23T09:59:27;4.72;;;2.90;;
6051;SDS011;3054;51.204;4.430;2022-07-23T10:01:56;2.90;;;2.50;;
6051;SDS011;3054;51.204;4.430;2022-07-23T10:04:25;4.43;;;2.80;;
6051;SDS011;3054;51.204;4.430;2022-07-23T10:06:55;4.00;;;3.35;;
6051;SDS011;3054;51.204;4.430;2022-07-23T10:09:25;4.10;;;2.50;;
6051;SDS011;3054;51.204;4.430;2022-07-23T10:11:56;5.50;;;2.80;;
6051;SDS011;3054;51.204;4.430;2022-07-23T10:14:35;2.67;;;2.47;;
6051;SDS011;3054;51.204;4.430;2022-07-23T10:17:03;5.82;;;2.85;;
6051;SDS011;3054;51.204;4.430;2022-07-23T10:19:30;5.60;;;2.95;;
6051;SDS011;3054;51.204;4.430;2022-07-23T10:22:00;8.70;;;3.20;;
6051;SDS011;3054;51.204;4.430;2022-07-23T10:24:30;3.30;;;3.00;;
6051;SDS011;3054;51.204;4.430;2022-07-23T10:27:14;7.00;;;2.97;;
6051;SDS011;3054;51.204;4.430;2022-07-23T10:30:02;2.80;;;2.70;;
6051;SDS011;3054;51.204;4.430;2022-07-23T10:32:36;3.95;;;3.10;;
6051;SDS011;3054;51.204;4.430;2022-07-23T10:35:13;4.45;;;2.72;;
6051;SDS011;3054;51.204;4.430;2022-07-23T10:37:47;3.33;;;2.90;;
6051;SDS011;3054;51.204;4.430;2022-07-23T10:40:17;3.70;;;3.00;;
6051;SDS011;3054;51.204;4.430;2022-07-23T10:42:47;4.90;;;3.17;;
6051;SDS011;3054;51.204;4.430;2022-07-23T10:45:27;3.40;;;3.10;;
6051;SDS011;3054;51.204;4.430;2022-07-23T10:47:56;4.38;;;3.22;;
6051;SDS011;3054;51.204;4.430;2022-07-23T10:50:39;3.08;;;2.72;;
6051;SDS011;3054;51.204;4.430;2022-07-23T10:53:12;2.30;;;2.20;;
6051;SDS011;3054;51.204;4.430;2022-07-23T10:55:44;2.33;;;2.13;;
6051;SDS011;3054;51.204;4.430;2022-07-23T10:58:17;2.40;;;2.30;;
6051;SDS011;3054;51.204;4.430;2022-07-23T11:00:45;5.00;;;2.10;;
6051;SDS011;3054;51.204;4.430;2022-07-23T11:03:29;3.45;;;1.50;;
6051;SDS011;3054;51.204;4.430;2022-07-23T11:06:01;1.83;;;1.73;;
6051;SDS011;3054;51.204;4.430;2022-07-23T11:08:30;4.40;;;1.90;;
6051;SDS011;3054;51.204;4.430;2022-07-23T11:11:10;3.28;;;1.95;;
6051;SDS011;3054;51.204;4.430;2022-07-23T11:13:38;1.70;;;1.42;;
6051;SDS011;3054;51.204;4.430;2022-07-23T11:16:17;2.70;;;1.80;;
6051;SDS011;3054;51.204;4.430;2022-07-23T11:18:58;2.08;;;1.35;;
6051;SDS011;3054;51.204;4.430;2022-07-23T11:21:45;1.92;;;1.80;;
6051;SDS011;3054;51.204;4.430;2022-07-23T11:24:15;3.92;;;1.80;;
6051;SDS011;3054;51.204;4.430;2022-07-23T11:26:53;5.55;;;1.60;;
6051;SDS011;3054;51.204;4.430;2022-07-23T11:29:48;1.75;;;1.58;;
6051;SDS011;3054;51.204;4.430;2022-07-23T11:35:27;1.25;;;1.10;;
6051;SDS011;3054;51.204;4.430;2022-07-23T11:38:03;2.65;;;1.77;;
6051;SDS011;3054;51.204;4.430;2022-07-23T11:40:32;2.55;;;1.70;;
6051;SDS011;3054;51.204;4.430;2022-07-23T11:43:00;2.20;;;1.65;;
6051;SDS011;3054;51.204;4.430;2022-07-23T11:45:32;3.10;;;1.83;;
6051;SDS011;3054;51.204;4.430;2022-07-23T11:48:01;2.33;;;1.90;;
6051;SDS011;3054;51.204;4.430;2022-07-23T11:50:30;2.00;;;1.83;;
6051;SDS011;3054;51.204;4.430;2022-07-23T11:52:57;3.22;;;2.38;;
6051;SDS011;3054;51.204;4.430;2022-07-23T11:55:24;4.13;;;1.77;;
6051;SDS011;3054;51.204;4.430;2022-07-23T11:57:55;3.42;;;1.88;;
6051;SDS011;3054;51.204;4.430;2022-07-23T12:00:23;1.73;;;1.63;;
6051;SDS011;3054;51.204;4.430;2022-07-23T12:02:52;3.40;;;1.92;;
6051;SDS011;3054;51.204;4.430;2022-07-23T12:05:23;1.60;;;1.50;;
6051;SDS011;3054;51.204;4.430;2022-07-23T12:07:52;2.03;;;1.80;;
6051;SDS011;3054;51.204;4.430;2022-07-23T12:10:23;4.10;;;2.42;;
6051;SDS011;3054;51.204;4.430;2022-07-23T12:12:53;2.58;;;1.45;;
6051;SDS011;3054;51.204;4.430;2022-07-23T12:15:23;1.65;;;1.08;;
6051;SDS011;3054;51.204;4.430;2022-07-23T12:17:51;4.78;;;1.70;;
6051;SDS011;3054;51.204;4.430;2022-07-23T12:20:20;2.45;;;1.50;;
6051;SDS011;3054;51.204;4.430;2022-07-23T12:22:49;1.20;;;1.10;;
6051;SDS011;3054;51.204;4.430;2022-07-23T12:25:18;2.03;;;1.90;;
6051;SDS011;3054;51.204;4.430;2022-07-23T12:27:57;2.05;;;1.50;;
6051;SDS011;3054;51.204;4.430;2022-07-23T12:30:28;2.10;;;1.73;;
6051;SDS011;3054;51.204;4.430;2022-07-23T12:32:59;2.15;;;1.60;;
6051;SDS011;3054;51.204;4.430;2022-07-23T12:35:30;2.38;;;1.95;;
6051;SDS011;3054;51.204;4.430;2022-07-23T12:38:04;5.60;;;2.05;;
6051;SDS011;3054;51.204;4.430;2022-07-23T12:40:33;2.55;;;1.48;;
6051;SDS011;3054;51.204;4.430;2022-07-23T12:43:03;1.60;;;1.42;;
6051;SDS011;3054;51.204;4.430;2022-07-23T12:48:24;4.05;;;1.58;;
6051;SDS011;3054;51.204;4.430;2022-07-23T12:50:52;1.83;;;1.73;;
6051;SDS011;3054;51.204;4.430;2022-07-23T12:53:22;7.70;;;1.75;;
6051;SDS011;3054;51.204;4.430;2022-07-23T12:55:51;3.63;;;1.75;;
6051;SDS011;3054;51.204;4.430;2022-07-23T12:58:26;2.13;;;1.55;;
6051;SDS011;3054;51.204;4.430;2022-07-23T13:00:54;2.92;;;1.90;;
6051;SDS011;3054;51.204;4.430;2022-07-23T13:03:33;1.73;;;1.50;;
6051;SDS011;3054;51.204;4.430;2022-07-23T13:06:03;2.65;;;1.73;;
6051;SDS011;3054;51.204;4.430;2022-07-23T13:08:31;4.47;;;2.10;;
6051;SDS011;3054;51.204;4.430;2022-07-23T13:10:59;2.55;;;1.50;;
6051;SDS011;3054;51.204;4.430;2022-07-23T13:13:30;2.45;;;1.75;;
6051;SDS011;3054;51.204;4.430;2022-07-23T13:15:57;4.40;;;1.73;;
6051;SDS011;3054;51.204;4.430;2022-07-23T13:18:25;2.30;;;1.65;;
6051;SDS011;3054;51.204;4.430;2022-07-23T13:20:53;3.20;;;1.80;;
6051;SDS011;3054;51.204;4.430;2022-07-23T13:23:20;6.35;;;1.80;;
6051;SDS011;3054;51.204;4.430;2022-07-23T13:25:47;2.65;;;1.33;;
6051;SDS011;3054;51.204;4.430;2022-07-23T13:28:15;5.38;;;1.83;;
6051;SDS011;3054;51.204;4.430;2022-07-23T13:30:45;2.80;;;1.80;;
6051;SDS011;3054;51.204;4.430;2022-07-23T13:33:14;4.50;;;1.58;;
6051;SDS011;3054;51.204;4.430;2022-07-23T13:35:42;6.65;;;1.75;;
6051;SDS011;3054;51.204;4.430;2022-07-23T13:38:09;2.17;;;2.03;;
6051;SDS011;3054;51.204;4.430;2022-07-23T13:40:36;2.03;;;1.77;;
6051;SDS011;3054;51.204;4.430;2022-07-23T13:43:07;7.60;;;1.70;;
6051;SDS011;3054;51.204;4.430;2022-07-23T13:45:35;5.68;;;1.40;;
6051;SDS011;3054;51.204;4.430;2022-07-23T13:48:04;1.85;;;1.75;;
6051;SDS011;3054;51.204;4.430;2022-07-23T13:50:32;3.22;;;2.35;;
6051;SDS011;3054;51.204;4.430;2022-07-23T13:53:00;2.38;;;2.10;;
6051;SDS011;3054;51.204;4.430;2022-07-23T13:55:29;3.63;;;1.80;;
6051;SDS011;3054;51.204;4.430;2022-07-23T13:57:56;2.95;;;2.60;;
6051;SDS011;3054;51.204;4.430;2022-07-23T14:00:23;2.60;;;1.98;;
6051;SDS011;3054;51.204;4.430;2022-07-23T14:02:50;3.63;;;2.35;;
6051;SDS011;3054;51.204;4.430;2022-07-23T14:05:18;2.63;;;2.42;;
6051;SDS011;3054;51.204;4.430;2022-07-23T14:07:45;3.28;;;2.08;;
6051;SDS011;3054;51.204;4.430;2022-07-23T14:10:15;4.07;;;2.53;;
6051;SDS011;3054;51.204;4.430;2022-07-23T14:12:42;2.33;;;2.17;;
6051;SDS011;3054;51.204;4.430;2022-07-23T14:15:09;4.22;;;2.35;;
6051;SDS011;3054;51.204;4.430;2022-07-23T14:17:37;2.25;;;2.05;;
6051;SDS011;3054;51.204;4.430;2022-07-23T14:20:04;2.15;;;1.83;;
6051;SDS011;3054;51.204;4.430;2022-07-23T14:22:34;2.78;;;2.17;;
6051;SDS011;3054;51.204;4.430;2022-07-23T14:25:02;9.98;;;2.60;;
6051;SDS011;3054;51.204;4.430;2022-07-23T14:27:29;3.03;;;2.35;;
6051;SDS011;3054;51.204;4.430;2022-07-23T14:29:56;4.05;;;2.80;;
6051;SDS011;3054;51.204;4.430;2022-07-23T14:32:24;2.63;;;2.42;;
6051;SDS011;3054;51.204;4.430;2022-07-23T14:34:51;2.30;;;2.17;;
6051;SDS011;3054;51.204;4.430;2022-07-23T14:37:19;5.47;;;3.70;;
6051;SDS011;3054;51.204;4.430;2022-07-23T14:39:47;5.97;;;2.92;;
6051;SDS011;3054;51.204;4.430;2022-07-23T14:42:14;4.93;;;3.58;;
6051;SDS011;3054;51.204;4.430;2022-07-23T14:44:41;5.18;;;2.90;;
6051;SDS011;3054;51.204;4.430;2022-07-23T14:47:08;3.20;;;2.85;;
6051;SDS011;3054;51.204;4.430;2022-07-23T14:49:35;4.70;;;2.78;;
6051;SDS011;3054;51.204;4.430;2022-07-23T14:52:02;3.50;;;2.92;;
6051;SDS011;3054;51.204;4.430;2022-07-23T14:54:30;3.58;;;2.85;;
6051;SDS011;3054;51.204;4.430;2022-07-23T14:56:59;3.92;;;2.80;;
6051;SDS011;3054;51.204;4.430;2022-07-23T14:59:27;3.60;;;3.17;;
6051;SDS011;3054;51.204;4.430;2022-07-23T15:01:55;4.95;;;3.22;;
6051;SDS011;3054;51.204;4.430;2022-07-23T15:04:22;5.05;;;3.53;;
6051;SDS011;3054;51.204;4.430;2022-07-23T15:06:50;4.55;;;3.22;;
6051;SDS011;3054;51.204;4.430;2022-07-23T15:09:17;5.05;;;2.50;;
6051;SDS011;3054;51.204;4.430;2022-07-23T15:11:44;2.88;;;2.40;;
6051;SDS011;3054;51.204;4.430;2022-07-23T15:14:13;14.23;;;3.53;;
6051;SDS011;3054;51.204;4.430;2022-07-23T15:16:40;3.25;;;2.95;;
6051;SDS011;3054;51.204;4.430;2022-07-23T15:19:07;6.90;;;3.30;;
6051;SDS011;3054;51.204;4.430;2022-07-23T15:21:35;5.53;;;3.25;;
6051;SDS011;3054;51.204;4.430;2022-07-23T15:24:01;4.18;;;3.28;;
6051;SDS011;3054;51.204;4.430;2022-07-23T15:26:29;3.10;;;2.80;;
6051;SDS011;3054;51.204;4.430;2022-07-23T15:28:57;9.57;;;3.50;;